sensor_id;sensor_type;location;lat;lon;timestamp;pressure;altitude;pressure_sealevel;temperature;humidity
9261;BME280;4667;42.726;23.252;2023-04-03T00:00:32;94604.53;;;10.14;nan
9261;BME280;4667;42.726;23.252;2023-04-03T00:02:59;94607.97;;;10.21;nan
9261;BME280;4667;42.726;23.252;2023-04-03T00:05:26;94603.78;;;10.10;nan
9261;BME280;4667;42.726;23.252;2023-04-03T00:07:55;94608.03;;;10.11;nan
9261;BME280;4667;42.726;23.252;2023-04-03T00:10:22;94601.09;;;10.10;nan
9261;BME280;4667;42.726;23.252;2023-04-03T00:12:50;94586.75;;;10.16;nan
9261;BME280;4667;42.726;23.252;2023-04-03T00:15:17;94592.13;;;10.20;nan
9261;BME280;4667;42.726;23.252;2023-04-03T00:17:45;94580.91;;;10.21;nan
9261;BME280;4667;42.726;23.252;2023-04-03T00:20:12;94587.50;;;10.20;nan
9261;BME280;4667;42.726;23.252;2023-04-03T00:22:39;94589.88;;;10.08;nan
9261;BME280;4667;42.726;23.252;2023-04-03T00:25:09;94591.13;;;10.00;nan
9261;BME280;4667;42.726;23.252;2023-04-03T00:27:36;94588.19;;;9.73;nan
9261;BME280;4667;42.726;23.252;2023-04-03T00:30:04;94593.69;;;9.62;nan
9261;BME280;4667;42.726;23.252;2023-04-03T00:32:34;94602.34;;;9.32;nan
9261;BME280;4667;42.726;23.252;2023-04-03T00:35:01;94598.53;;;9.23;nan
9261;BME280;4667;42.726;23.252;2023-04-03T00:37:28;94597.84;;;8.97;nan
9261;BME280;4667;42.726;23.252;2023-04-03T00:39:56;94600.19;;;8.88;nan
9261;BME280;4667;42.726;23.252;2023-04-03T00:42:25;94598.72;;;8.66;nan
9261;BME280;4667;42.726;23.252;2023-04-03T00:45:24;94604.91;;;8.56;nan
9261;BME280;4667;42.726;23.252;2023-04-03T00:47:51;94605.69;;;8.49;nan
9261;BME280;4667;42.726;23.252;2023-04-03T00:50:19;94601.09;;;8.32;nan
9261;BME280;4667;42.726;23.252;2023-04-03T00:52:47;94599.50;;;8.17;nan
9261;BME280;4667;42.726;23.252;2023-04-03T00:55:14;94606.09;;;8.16;nan
9261;BME280;4667;42.726;23.252;2023-04-03T00:57:44;94604.53;;;7.97;nan
9261;BME280;4667;42.726;23.252;2023-04-03T01:00:17;94608.00;;;7.84;nan
9261;BME280;4667;42.726;23.252;2023-04-03T01:02:45;94615.72;;;7.85;nan
9261;BME280;4667;42.726;23.252;2023-04-03T01:05:12;94619.16;;;7.78;nan
9261;BME280;4667;42.726;23.252;2023-04-03T01:07:42;94615.25;;;7.51;nan
9261;BME280;4667;42.726;23.252;2023-04-03T01:10:11;94622.13;;;7.31;nan
9261;BME280;4667;42.726;23.252;2023-04-03T01:12:41;94621.38;;;7.30;nan
9261;BME280;4667;42.726;23.252;2023-04-03T01:15:14;94613.22;;;7.16;nan
9261;BME280;4667;42.726;23.252;2023-04-03T01:17:44;94607.06;;;7.16;nan
9261;BME280;4667;42.726;23.252;2023-04-03T01:23:33;94618.25;;;7.25;nan
9261;BME280;4667;42.726;23.252;2023-04-03T01:26:06;94611.38;;;7.42;nan
9261;BME280;4667;42.726;23.252;2023-04-03T01:28:35;94618.69;;;7.41;nan
9261;BME280;4667;42.726;23.252;2023-04-03T01:31:12;94613.31;;;7.37;nan
9261;BME280;4667;42.726;23.252;2023-04-03T01:33:43;94620.63;;;7.44;nan
9261;BME280;4667;42.726;23.252;2023-04-03T01:36:14;94626.81;;;7.55;nan
9261;BME280;4667;42.726;23.252;2023-04-03T01:38:41;94618.34;;;7.53;nan
9261;BME280;4667;42.726;23.252;2023-04-03T01:41:08;94620.63;;;7.51;nan
9261;BME280;4667;42.726;23.252;2023-04-03T01:43:35;94615.25;;;7.51;nan
9261;BME280;4667;42.726;23.252;2023-04-03T01:46:02;94609.13;;;7.51;nan
9261;BME280;4667;42.726;23.252;2023-04-03T01:48:29;94606.41;;;7.51;nan
9261;BME280;4667;42.726;23.252;2023-04-03T01:50:57;94608.69;;;7.38;nan
9261;BME280;4667;42.726;23.252;2023-04-03T01:53:24;94619.38;;;7.13;nan
9261;BME280;4667;42.726;23.252;2023-04-03T01:55:51;94607.88;;;7.27;nan
9261;BME280;4667;42.726;23.252;2023-04-03T01:58:18;94611.34;;;7.34;nan
9261;BME280;4667;42.726;23.252;2023-04-03T02:00:45;94610.63;;;7.37;nan
9261;BME280;4667;42.726;23.252;2023-04-03T02:03:13;94607.06;;;7.16;nan
9261;BME280;4667;42.726;23.252;2023-04-03T02:05:40;94609.81;;;7.26;nan
9261;BME280;4667;42.726;23.252;2023-04-03T02:08:09;94605.97;;;7.31;nan
9261;BME280;4667;42.726;23.252;2023-04-03T02:10:36;94610.19;;;7.25;nan
9261;BME280;4667;42.726;23.252;2023-04-03T02:13:03;94605.53;;;7.22;nan
9261;BME280;4667;42.726;23.252;2023-04-03T02:15:30;94609.41;;;7.24;nan
9261;BME280;4667;42.726;23.252;2023-04-03T02:17:57;94608.56;;;7.10;nan
9261;BME280;4667;42.726;23.252;2023-04-03T02:20:25;94606.28;;;7.15;nan
9261;BME280;4667;42.726;23.252;2023-04-03T02:22:53;94597.03;;;7.02;nan
9261;BME280;4667;42.726;23.252;2023-04-03T02:25:21;94597.81;;;7.06;nan
9261;BME280;4667;42.726;23.252;2023-04-03T02:27:48;94598.22;;;7.08;nan
9261;BME280;4667;42.726;23.252;2023-04-03T02:30:16;94594.38;;;7.13;nan
9261;BME280;4667;42.726;23.252;2023-04-03T02:32:43;94591.31;;;7.14;nan
9261;BME280;4667;42.726;23.252;2023-04-03T02:35:11;94582.06;;;7.12;nan
9261;BME280;4667;42.726;23.252;2023-04-03T02:37:39;94593.22;;;7.14;nan
9261;BME280;4667;42.726;23.252;2023-04-03T02:40:07;94588.63;;;7.14;nan
9261;BME280;4667;42.726;23.252;2023-04-03T02:42:35;94587.44;;;7.08;nan
9261;BME280;4667;42.726;23.252;2023-04-03T02:45:03;94582.75;;;6.91;nan
9261;BME280;4667;42.726;23.252;2023-04-03T02:47:30;94587.38;;;6.97;nan
9261;BME280;4667;42.726;23.252;2023-04-03T02:49:57;94587.41;;;7.01;nan
9261;BME280;4667;42.726;23.252;2023-04-03T02:52:24;94583.94;;;7.01;nan
9261;BME280;4667;42.726;23.252;2023-04-03T02:54:51;94579.34;;;7.05;nan
9261;BME280;4667;42.726;23.252;2023-04-03T02:57:18;94583.97;;;7.11;nan
9261;BME280;4667;42.726;23.252;2023-04-03T02:59:48;94575.50;;;7.09;nan
9261;BME280;4667;42.726;23.252;2023-04-03T03:02:15;94573.97;;;7.12;nan
9261;BME280;4667;42.726;23.252;2023-04-03T03:04:42;94578.22;;;7.13;nan
9261;BME280;4667;42.726;23.252;2023-04-03T03:07:09;94576.28;;;7.06;nan
9261;BME280;4667;42.726;23.252;2023-04-03T03:09:36;94576.63;;;7.01;nan
9261;BME280;4667;42.726;23.252;2023-04-03T03:12:03;94575.50;;;7.02;nan
9261;BME280;4667;42.726;23.252;2023-04-03T03:14:30;94575.09;;;7.04;nan
9261;BME280;4667;42.726;23.252;2023-04-03T03:16:59;94570.84;;;6.95;nan
9261;BME280;4667;42.726;23.252;2023-04-03T03:19:28;94578.53;;;6.93;nan
9261;BME280;4667;42.726;23.252;2023-04-03T03:21:55;94579.31;;;6.94;nan
9261;BME280;4667;42.726;23.252;2023-04-03T03:24:22;94574.69;;;6.91;nan
9261;BME280;4667;42.726;23.252;2023-04-03T03:26:49;94577.00;;;6.96;nan
9261;BME280;4667;42.726;23.252;2023-04-03T03:29:16;94580.41;;;6.82;nan
9261;BME280;4667;42.726;23.252;2023-04-03T03:31:43;94582.66;;;6.70;nan
9261;BME280;4667;42.726;23.252;2023-04-03T03:34:11;94583.84;;;6.79;nan
9261;BME280;4667;42.726;23.252;2023-04-03T03:36:39;94579.97;;;6.70;nan
9261;BME280;4667;42.726;23.252;2023-04-03T03:39:06;94581.09;;;6.65;nan
9261;BME280;4667;42.726;23.252;2023-04-03T03:41:33;94583.34;;;6.56;nan
9261;BME280;4667;42.726;23.252;2023-04-03T03:44:00;94583.38;;;6.60;nan
9261;BME280;4667;42.726;23.252;2023-04-03T03:46:27;94580.66;;;6.56;nan
9261;BME280;4667;42.726;23.252;2023-04-03T03:48:54;94584.13;;;6.56;nan
9261;BME280;4667;42.726;23.252;2023-04-03T03:51:22;94584.47;;;6.51;nan
9261;BME280;4667;42.726;23.252;2023-04-03T03:53:49;94590.25;;;6.53;nan
9261;BME280;4667;42.726;23.252;2023-04-03T03:56:16;94579.09;;;6.51;nan
9261;BME280;4667;42.726;23.252;2023-04-03T03:58:43;94592.91;;;6.50;nan
9261;BME280;4667;42.726;23.252;2023-04-03T04:01:18;94596.38;;;6.43;nan
9261;BME280;4667;42.726;23.252;2023-04-03T04:04:00;94589.44;;;6.46;nan
9261;BME280;4667;42.726;23.252;2023-04-03T04:06:43;94584.44;;;6.44;nan
9261;BME280;4667;42.726;23.252;2023-04-03T04:09:11;94576.34;;;6.37;nan
9261;BME280;4667;42.726;23.252;2023-04-03T04:11:38;94580.53;;;6.31;nan
9261;BME280;4667;42.726;23.252;2023-04-03T04:14:08;94582.03;;;6.29;nan
9261;BME280;4667;42.726;23.252;2023-04-03T04:16:49;94579.34;;;6.25;nan
9261;BME280;4667;42.726;23.252;2023-04-03T04:19:19;94586.25;;;6.26;nan
9261;BME280;4667;42.726;23.252;2023-04-03T04:38:04;94602.00;;;6.28;nan
9261;BME280;4667;42.726;23.252;2023-04-03T04:40:45;94617.81;;;6.36;nan
9261;BME280;4667;42.726;23.252;2023-04-03T04:43:12;94623.16;;;6.29;nan
9261;BME280;4667;42.726;23.252;2023-04-03T04:45:40;94622.78;;;6.34;nan
9261;BME280;4667;42.726;23.252;2023-04-03T04:48:21;94611.97;;;6.24;nan
9261;BME280;4667;42.726;23.252;2023-04-03T04:51:02;94619.41;;;6.44;nan
9261;BME280;4667;42.726;23.252;2023-04-03T04:56:54;94637.84;;;6.42;nan
9261;BME280;4667;42.726;23.252;2023-04-03T04:59:33;94640.44;;;6.28;nan
9261;BME280;4667;42.726;23.252;2023-04-03T05:02:15;94639.41;;;6.47;nan
9261;BME280;4667;42.726;23.252;2023-04-03T05:04:42;94638.28;;;6.51;nan
9261;BME280;4667;42.726;23.252;2023-04-03T05:07:10;94636.78;;;6.57;nan
9261;BME280;4667;42.726;23.252;2023-04-03T05:09:48;94639.13;;;6.63;nan
9261;BME280;4667;42.726;23.252;2023-04-03T05:12:16;94643.00;;;6.69;nan
9261;BME280;4667;42.726;23.252;2023-04-03T05:14:43;94639.16;;;6.70;nan
9261;BME280;4667;42.726;23.252;2023-04-03T05:17:10;94649.56;;;6.75;nan
9261;BME280;4667;42.726;23.252;2023-04-03T05:19:37;94646.50;;;6.76;nan
9261;BME280;4667;42.726;23.252;2023-04-03T05:22:03;94657.19;;;6.62;nan
9261;BME280;4667;42.726;23.252;2023-04-03T05:24:30;94658.34;;;6.61;nan
9261;BME280;4667;42.726;23.252;2023-04-03T05:26:57;94655.56;;;6.47;nan
9261;BME280;4667;42.726;23.252;2023-04-03T05:29:25;94657.94;;;6.63;nan
9261;BME280;4667;42.726;23.252;2023-04-03T05:31:52;94658.81;;;6.81;nan
9261;BME280;4667;42.726;23.252;2023-04-03T05:34:19;94657.69;;;6.78;nan
9261;BME280;4667;42.726;23.252;2023-04-03T05:36:47;94650.34;;;6.75;nan
9261;BME280;4667;42.726;23.252;2023-04-03T05:39:20;94653.84;;;6.83;nan
9261;BME280;4667;42.726;23.252;2023-04-03T05:41:48;94651.63;;;6.99;nan
9261;BME280;4667;42.726;23.252;2023-04-03T05:44:15;94657.84;;;7.17;nan
9261;BME280;4667;42.726;23.252;2023-04-03T05:46:46;94655.91;;;7.07;nan
9261;BME280;4667;42.726;23.252;2023-04-03T05:49:13;94650.47;;;7.00;nan
9261;BME280;4667;42.726;23.252;2023-04-03T05:51:40;94644.47;;;7.31;nan
9261;BME280;4667;42.726;23.252;2023-04-03T05:54:11;94639.06;;;7.35;nan
9261;BME280;4667;42.726;23.252;2023-04-03T05:56:39;94634.84;;;7.30;nan
9261;BME280;4667;42.726;23.252;2023-04-03T05:59:05;94645.59;;;7.30;nan
9261;BME280;4667;42.726;23.252;2023-04-03T06:01:32;94639.50;;;7.48;nan
9261;BME280;4667;42.726;23.252;2023-04-03T06:04:01;94636.81;;;7.48;nan
9261;BME280;4667;42.726;23.252;2023-04-03T06:06:43;94634.88;;;7.45;nan
9261;BME280;4667;42.726;23.252;2023-04-03T06:09:10;94638.00;;;7.61;nan
9261;BME280;4667;42.726;23.252;2023-04-03T06:11:37;94632.22;;;7.66;nan
9261;BME280;4667;42.726;23.252;2023-04-03T06:14:04;94620.28;;;7.63;nan
9261;BME280;4667;42.726;23.252;2023-04-03T06:16:32;94616.47;;;7.68;nan
9261;BME280;4667;42.726;23.252;2023-04-03T06:19:00;94608.41;;;7.86;nan
9261;BME280;4667;42.726;23.252;2023-04-03T06:21:27;94605.69;;;7.89;nan
9261;BME280;4667;42.726;23.252;2023-04-03T06:23:54;94607.56;;;7.57;nan
9261;BME280;4667;42.726;23.252;2023-04-03T06:26:21;94609.50;;;7.63;nan
9261;BME280;4667;42.726;23.252;2023-04-03T06:28:48;94618.41;;;7.99;nan
9261;BME280;4667;42.726;23.252;2023-04-03T06:31:15;94616.47;;;8.10;nan
9261;BME280;4667;42.726;23.252;2023-04-03T06:33:42;94620.31;;;8.24;nan
9261;BME280;4667;42.726;23.252;2023-04-03T06:36:11;94628.81;;;8.26;nan
9261;BME280;4667;42.726;23.252;2023-04-03T06:38:38;94624.56;;;8.17;nan
9261;BME280;4667;42.726;23.252;2023-04-03T06:41:05;94623.78;;;8.24;nan
9261;BME280;4667;42.726;23.252;2023-04-03T06:43:32;94623.81;;;8.31;nan
9261;BME280;4667;42.726;23.252;2023-04-03T06:45:59;94631.91;;;8.35;nan
9261;BME280;4667;42.726;23.252;2023-04-03T06:48:27;94631.91;;;8.35;nan
9261;BME280;4667;42.726;23.252;2023-04-03T06:50:54;94641.16;;;8.30;nan
9261;BME280;4667;42.726;23.252;2023-04-03T06:53:22;94633.06;;;8.51;nan
9261;BME280;4667;42.726;23.252;2023-04-03T06:55:49;94616.47;;;8.53;nan
9261;BME280;4667;42.726;23.252;2023-04-03T06:58:16;94621.84;;;8.71;nan
9261;BME280;4667;42.726;23.252;2023-04-03T07:00:44;94632.63;;;8.78;nan
9261;BME280;4667;42.726;23.252;2023-04-03T07:03:12;94626.41;;;9.06;nan
9261;BME280;4667;42.726;23.252;2023-04-03T07:05:39;94627.16;;;9.02;nan
9261;BME280;4667;42.726;23.252;2023-04-03T07:08:06;94636.34;;;9.19;nan
9261;BME280;4667;42.726;23.252;2023-04-03T07:10:34;94639.91;;;8.98;nan
9261;BME280;4667;42.726;23.252;2023-04-03T07:13:01;94641.25;;;9.49;nan
9261;BME280;4667;42.726;23.252;2023-04-03T07:15:28;94642.09;;;9.39;nan
9261;BME280;4667;42.726;23.252;2023-04-03T07:17:55;94615.59;;;9.78;nan
9261;BME280;4667;42.726;23.252;2023-04-03T07:20:22;94617.75;;;10.01;nan
9261;BME280;4667;42.726;23.252;2023-04-03T07:22:48;94618.56;;;9.98;nan
9261;BME280;4667;42.726;23.252;2023-04-03T07:25:16;94617.38;;;10.03;nan
9261;BME280;4667;42.726;23.252;2023-04-03T07:27:46;94609.16;;;10.13;nan
9261;BME280;4667;42.726;23.252;2023-04-03T07:30:14;94611.13;;;10.57;nan
9261;BME280;4667;42.726;23.252;2023-04-03T07:32:41;94608.44;;;10.57;nan
9261;BME280;4667;42.726;23.252;2023-04-03T07:35:09;94603.50;;;10.86;nan
9261;BME280;4667;42.726;23.252;2023-04-03T07:37:36;94598.97;;;10.76;nan
9261;BME280;4667;42.726;23.252;2023-04-03T07:40:03;94590.50;;;11.08;nan
9261;BME280;4667;42.726;23.252;2023-04-03T07:42:30;94599.00;;;11.40;nan
9261;BME280;4667;42.726;23.252;2023-04-03T07:44:58;94590.00;;;11.17;nan
9261;BME280;4667;42.726;23.252;2023-04-03T07:47:25;94586.44;;;11.54;nan
9261;BME280;4667;42.726;23.252;2023-04-03T07:49:52;94577.38;;;11.64;nan
9261;BME280;4667;42.726;23.252;2023-04-03T07:52:19;94571.16;;;11.94;nan
9261;BME280;4667;42.726;23.252;2023-04-03T07:54:46;94570.28;;;12.00;nan
9261;BME280;4667;42.726;23.252;2023-04-03T07:57:12;94580.56;;;12.12;nan
9261;BME280;4667;42.726;23.252;2023-04-03T07:59:40;94576.78;;;12.30;nan
9261;BME280;4667;42.726;23.252;2023-04-03T08:02:12;94575.25;;;12.28;nan
9261;BME280;4667;42.726;23.252;2023-04-03T08:04:39;94573.75;;;12.01;nan
9261;BME280;4667;42.726;23.252;2023-04-03T08:07:06;94556.34;;;11.98;nan
9261;BME280;4667;42.726;23.252;2023-04-03T08:09:33;94563.47;;;12.15;nan
9261;BME280;4667;42.726;23.252;2023-04-03T08:12:00;94570.69;;;12.22;nan
9261;BME280;4667;42.726;23.252;2023-04-03T08:14:26;94560.25;;;12.44;nan
9261;BME280;4667;42.726;23.252;2023-04-03T08:16:53;94561.50;;;12.39;nan
9261;BME280;4667;42.726;23.252;2023-04-03T08:19:21;94553.28;;;12.43;nan
9261;BME280;4667;42.726;23.252;2023-04-03T08:21:48;94550.50;;;12.46;nan
9261;BME280;4667;42.726;23.252;2023-04-03T08:24:15;94555.75;;;12.57;nan
9261;BME280;4667;42.726;23.252;2023-04-03T08:26:42;94558.66;;;12.46;nan
9261;BME280;4667;42.726;23.252;2023-04-03T08:29:08;94554.75;;;12.90;nan
9261;BME280;4667;42.726;23.252;2023-04-03T08:31:35;94554.91;;;13.03;nan
9261;BME280;4667;42.726;23.252;2023-04-03T08:34:03;94557.19;;;13.04;nan
9261;BME280;4667;42.726;23.252;2023-04-03T08:36:31;94548.88;;;13.12;nan
9261;BME280;4667;42.726;23.252;2023-04-03T08:38:58;94544.19;;;13.16;nan
9261;BME280;4667;42.726;23.252;2023-04-03T08:41:29;94543.00;;;13.17;nan
9261;BME280;4667;42.726;23.252;2023-04-03T08:44:03;94538.94;;;13.25;nan
9261;BME280;4667;42.726;23.252;2023-04-03T08:46:42;94539.16;;;13.34;nan
9261;BME280;4667;42.726;23.252;2023-04-03T08:49:22;94536.25;;;13.41;nan
9261;BME280;4667;42.726;23.252;2023-04-03T08:51:51;94533.97;;;13.39;nan
9261;BME280;4667;42.726;23.252;2023-04-03T08:54:28;94532.56;;;13.51;nan
9261;BME280;4667;42.726;23.252;2023-04-03T08:56:58;94528.72;;;13.65;nan
9261;BME280;4667;42.726;23.252;2023-04-03T08:59:29;94527.28;;;13.76;nan
9261;BME280;4667;42.726;23.252;2023-04-03T09:01:58;94519.75;;;14.00;nan
9261;BME280;4667;42.726;23.252;2023-04-03T09:04:27;94518.38;;;14.08;nan
9261;BME280;4667;42.726;23.252;2023-04-03T09:07:03;94514.13;;;14.23;nan
9261;BME280;4667;42.726;23.252;2023-04-03T09:09:32;94501.19;;;14.27;nan
9261;BME280;4667;42.726;23.252;2023-04-03T09:12:10;94499.88;;;14.48;nan
9261;BME280;4667;42.726;23.252;2023-04-03T09:14:42;94494.78;;;14.50;nan
9261;BME280;4667;42.726;23.252;2023-04-03T09:17:15;94497.66;;;14.59;nan
9261;BME280;4667;42.726;23.252;2023-04-03T09:19:51;94504.56;;;14.31;nan
9261;BME280;4667;42.726;23.252;2023-04-03T09:22:24;94490.69;;;14.42;nan
9261;BME280;4667;42.726;23.252;2023-04-03T09:24:57;94489.50;;;14.59;nan
9261;BME280;4667;42.726;23.252;2023-04-03T09:27:25;94484.34;;;14.61;nan
9261;BME280;4667;42.726;23.252;2023-04-03T09:29:53;94481.06;;;14.83;nan
9261;BME280;4667;42.726;23.252;2023-04-03T09:32:26;94480.69;;;14.68;nan
9261;BME280;4667;42.726;23.252;2023-04-03T09:34:55;94473.19;;;14.85;nan
9261;BME280;4667;42.726;23.252;2023-04-03T09:37:38;94481.91;;;14.80;nan
9261;BME280;4667;42.726;23.252;2023-04-03T09:40:12;94468.69;;;14.65;nan
9261;BME280;4667;42.726;23.252;2023-04-03T09:42:58;94472.59;;;15.06;nan
9261;BME280;4667;42.726;23.252;2023-04-03T09:49:08;94469.91;;;15.44;nan
9261;BME280;4667;42.726;23.252;2023-04-03T09:51:39;94459.66;;;15.23;nan
9261;BME280;4667;42.726;23.252;2023-04-03T09:54:40;94454.75;;;15.43;nan
9261;BME280;4667;42.726;23.252;2023-04-03T09:57:10;94450.94;;;15.40;nan
9261;BME280;4667;42.726;23.252;2023-04-03T09:59:56;94447.47;;;15.65;nan
9261;BME280;4667;42.726;23.252;2023-04-03T10:02:45;94444.03;;;15.86;nan
9261;BME280;4667;42.726;23.252;2023-04-03T10:05:32;94444.78;;;16.00;nan
9261;BME280;4667;42.726;23.252;2023-04-03T10:08:09;94435.47;;;16.10;nan
9261;BME280;4667;42.726;23.252;2023-04-03T10:10:38;94438.31;;;16.06;nan
9261;BME280;4667;42.726;23.252;2023-04-03T10:13:07;94436.88;;;16.14;nan
9261;BME280;4667;42.726;23.252;2023-04-03T10:15:39;94433.75;;;16.38;nan
9261;BME280;4667;42.726;23.252;2023-04-03T10:18:21;94432.47;;;16.29;nan
9261;BME280;4667;42.726;23.252;2023-04-03T10:20:56;94438.84;;;16.14;nan
9261;BME280;4667;42.726;23.252;2023-04-03T10:23:26;94428.63;;;15.80;nan
9261;BME280;4667;42.726;23.252;2023-04-03T10:26:06;94432.25;;;15.77;nan
9261;BME280;4667;42.726;23.252;2023-04-03T10:28:44;94426.47;;;15.75;nan
9261;BME280;4667;42.726;23.252;2023-04-03T10:31:17;94422.91;;;15.52;nan
9261;BME280;4667;42.726;23.252;2023-04-03T10:33:53;94414.25;;;15.67;nan
9261;BME280;4667;42.726;23.252;2023-04-03T10:36:34;94413.94;;;15.65;nan
9261;BME280;4667;42.726;23.252;2023-04-03T10:39:12;94406.41;;;15.56;nan
9261;BME280;4667;42.726;23.252;2023-04-03T10:41:53;94403.56;;;15.72;nan
9261;BME280;4667;42.726;23.252;2023-04-03T10:44:30;94393.41;;;15.73;nan
9261;BME280;4667;42.726;23.252;2023-04-03T10:47:06;94401.34;;;15.80;nan
9261;BME280;4667;42.726;23.252;2023-04-03T10:49:44;94399.38;;;15.68;nan
9261;BME280;4667;42.726;23.252;2023-04-03T10:52:20;94390.97;;;15.75;nan
9261;BME280;4667;42.726;23.252;2023-04-03T10:54:55;94394.91;;;15.74;nan
9261;BME280;4667;42.726;23.252;2023-04-03T10:57:28;94394.16;;;15.48;nan
9261;BME280;4667;42.726;23.252;2023-04-03T10:59:59;94387.50;;;15.36;nan
9261;BME280;4667;42.726;23.252;2023-04-03T11:02:30;94385.84;;;15.51;nan
9261;BME280;4667;42.726;23.252;2023-04-03T11:05:01;94388.50;;;15.30;nan
9261;BME280;4667;42.726;23.252;2023-04-03T11:07:38;94392.22;;;15.36;nan
9261;BME280;4667;42.726;23.252;2023-04-03T11:10:13;94387.94;;;15.35;nan
9261;BME280;4667;42.726;23.252;2023-04-03T11:12:46;94392.63;;;15.22;nan
9261;BME280;4667;42.726;23.252;2023-04-03T11:15:19;94394.03;;;15.26;nan
9261;BME280;4667;42.726;23.252;2023-04-03T11:17:51;94397.00;;;15.06;nan
9261;BME280;4667;42.726;23.252;2023-04-03T11:20:23;94401.47;;;15.00;nan
9261;BME280;4667;42.726;23.252;2023-04-03T11:22:58;94414.41;;;14.84;nan
9261;BME280;4667;42.726;23.252;2023-04-03T11:25:32;94405.56;;;14.80;nan
9261;BME280;4667;42.726;23.252;2023-04-03T11:28:03;94406.44;;;14.64;nan
9261;BME280;4667;42.726;23.252;2023-04-03T11:30:33;94408.69;;;14.37;nan
9261;BME280;4667;42.726;23.252;2023-04-03T11:35:58;94409.03;;;14.10;nan
9261;BME280;4667;42.726;23.252;2023-04-03T11:38:29;94408.16;;;14.13;nan
9261;BME280;4667;42.726;23.252;2023-04-03T11:41:01;94402.09;;;13.93;nan
9261;BME280;4667;42.726;23.252;2023-04-03T11:43:31;94417.00;;;13.56;nan
9261;BME280;4667;42.726;23.252;2023-04-03T11:46:00;94410.44;;;13.53;nan
9261;BME280;4667;42.726;23.252;2023-04-03T11:48:48;94419.38;;;13.37;nan
9261;BME280;4667;42.726;23.252;2023-04-03T11:54:51;94428.09;;;13.29;nan
9261;BME280;4667;42.726;23.252;2023-04-03T12:00:52;94423.25;;;12.84;nan
9261;BME280;4667;42.726;23.252;2023-04-03T12:09:57;94425.56;;;12.66;nan
9261;BME280;4667;42.726;23.252;2023-04-03T12:12:39;94425.06;;;12.51;nan
9261;BME280;4667;42.726;23.252;2023-04-03T12:21:19;94411.16;;;12.49;nan
9261;BME280;4667;42.726;23.252;2023-04-03T12:24:00;94412.69;;;12.50;nan
9261;BME280;4667;42.726;23.252;2023-04-03T12:26:31;94406.69;;;12.59;nan
9261;BME280;4667;42.726;23.252;2023-04-03T12:28:59;94395.75;;;12.43;nan
9261;BME280;4667;42.726;23.252;2023-04-03T12:31:37;94395.00;;;12.42;nan
9261;BME280;4667;42.726;23.252;2023-04-03T12:34:18;94396.59;;;12.20;nan
9261;BME280;4667;42.726;23.252;2023-04-03T12:37:15;94398.94;;;11.98;nan
9261;BME280;4667;42.726;23.252;2023-04-03T12:39:54;94388.22;;;11.91;nan
9261;BME280;4667;42.726;23.252;2023-04-03T12:42:32;94396.09;;;12.05;nan
9261;BME280;4667;42.726;23.252;2023-04-03T12:45:09;94383.75;;;11.81;nan
9261;BME280;4667;42.726;23.252;2023-04-03T12:47:42;94382.16;;;11.60;nan
9261;BME280;4667;42.726;23.252;2023-04-03T12:50:19;94378.66;;;11.60;nan
9261;BME280;4667;42.726;23.252;2023-04-03T12:52:54;94366.66;;;11.37;nan
9261;BME280;4667;42.726;23.252;2023-04-03T12:55:23;94382.22;;;11.07;nan
9261;BME280;4667;42.726;23.252;2023-04-03T12:57:51;94377.69;;;11.00;nan
9261;BME280;4667;42.726;23.252;2023-04-03T13:00:26;94375.06;;;10.93;nan
9261;BME280;4667;42.726;23.252;2023-04-03T13:02:54;94375.13;;;10.89;nan
9261;BME280;4667;42.726;23.252;2023-04-03T13:05:22;94380.69;;;10.79;nan
9261;BME280;4667;42.726;23.252;2023-04-03T13:07:56;94390.00;;;10.78;nan
9261;BME280;4667;42.726;23.252;2023-04-03T13:10:26;94388.25;;;10.64;nan
9261;BME280;4667;42.726;23.252;2023-04-03T13:12:55;94376.81;;;10.49;nan
9261;BME280;4667;42.726;23.252;2023-04-03T13:15:26;94376.25;;;10.65;nan
9261;BME280;4667;42.726;23.252;2023-04-03T13:17:56;94378.34;;;10.50;nan
9261;BME280;4667;42.726;23.252;2023-04-03T13:20:25;94377.59;;;10.50;nan
9261;BME280;4667;42.726;23.252;2023-04-03T13:22:59;94381.84;;;10.51;nan
9261;BME280;4667;42.726;23.252;2023-04-03T13:25:30;94375.25;;;10.52;nan
9261;BME280;4667;42.726;23.252;2023-04-03T13:27:59;94371.22;;;10.33;nan
9261;BME280;4667;42.726;23.252;2023-04-03T13:30:29;94373.09;;;10.40;nan
9261;BME280;4667;42.726;23.252;2023-04-03T13:33:19;94371.94;;;10.37;nan
9261;BME280;4667;42.726;23.252;2023-04-03T13:36:07;94383.22;;;10.32;nan
9261;BME280;4667;42.726;23.252;2023-04-03T13:38:40;94378.56;;;10.36;nan
9261;BME280;4667;42.726;23.252;2023-04-03T13:41:27;94374.16;;;10.46;nan
9261;BME280;4667;42.726;23.252;2023-04-03T13:43:55;94370.16;;;10.27;nan
9261;BME280;4667;42.726;23.252;2023-04-03T13:46:26;94373.94;;;10.33;nan
9261;BME280;4667;42.726;23.252;2023-04-03T13:48:56;94379.09;;;10.24;nan
9261;BME280;4667;42.726;23.252;2023-04-03T13:51:25;94365.88;;;10.30;nan
9261;BME280;4667;42.726;23.252;2023-04-03T13:54:16;94364.34;;;10.29;nan
9261;BME280;4667;42.726;23.252;2023-04-03T13:56:45;94359.22;;;10.34;nan
9261;BME280;4667;42.726;23.252;2023-04-03T13:59:30;94364.47;;;10.18;nan
9261;BME280;4667;42.726;23.252;2023-04-03T14:02:14;94347.06;;;10.15;nan
9261;BME280;4667;42.726;23.252;2023-04-03T14:04:53;94349.75;;;10.15;nan
9261;BME280;4667;42.726;23.252;2023-04-03T14:07:28;94354.47;;;10.11;nan
9261;BME280;4667;42.726;23.252;2023-04-03T14:10:07;94356.47;;;10.04;nan
9261;BME280;4667;42.726;23.252;2023-04-03T14:12:43;94350.28;;;10.07;nan
9261;BME280;4667;42.726;23.252;2023-04-03T14:15:20;94346.03;;;10.06;nan
9261;BME280;4667;42.726;23.252;2023-04-03T14:23:01;94344.09;;;10.06;nan
9261;BME280;4667;42.726;23.252;2023-04-03T14:31:06;94336.75;;;10.07;nan
9261;BME280;4667;42.726;23.252;2023-04-03T14:33:54;94335.88;;;10.13;nan
9261;BME280;4667;42.726;23.252;2023-04-03T14:36:35;94320.91;;;10.05;nan
9261;BME280;4667;42.726;23.252;2023-04-03T14:39:17;94329.09;;;9.98;nan
9261;BME280;4667;42.726;23.252;2023-04-03T14:41:45;94326.00;;;10.00;nan
9261;BME280;4667;42.726;23.252;2023-04-03T14:44:27;94329.78;;;10.06;nan
9261;BME280;4667;42.726;23.252;2023-04-03T14:47:17;94327.16;;;9.99;nan
9261;BME280;4667;42.726;23.252;2023-04-03T14:49:47;94328.06;;;9.89;nan
9261;BME280;4667;42.726;23.252;2023-04-03T14:52:31;94328.50;;;9.83;nan
9261;BME280;4667;42.726;23.252;2023-04-03T14:55:04;94320.66;;;9.93;nan
9261;BME280;4667;42.726;23.252;2023-04-03T15:00:13;94328.41;;;9.91;nan
9261;BME280;4667;42.726;23.252;2023-04-03T15:03:18;94317.84;;;9.69;nan